Time;durP1;ratioP1;P1;durP2;ratioP2;P2;SDS_P1;SDS_P2;PMS_P1;PMS_P2;Temp;Humidity;BMP_temperature;BMP_pressure;BME280_temperature;BME280_humidity;BME280_pressure;Samples;Min_cycle;Max_cycle;Signal;HPM_P1;HPM_P2
2022/09/22 00:01:58;;;;;;;22.35;14.18;;;;;;;;;;5034910;28;20105;-57
2022/09/22 00:04:24;;;;;;;21.30;13.63;;;;;;;;;;5034756;28;20034;-59
2022/09/22 00:06:50;;;;;;;19.92;14.00;;;;;;;;;;5034830;28;20029;-58
2022/09/22 00:09:17;;;;;;;19.92;13.35;;;;;;;;;;5034170;28;20032;-58
2022/09/22 00:11:45;;;;;;;20.58;13.60;;;;;;;;;;5035141;28;20033;-56
2022/09/22 00:14:20;;;;;;;22.50;13.60;;;;;;;;;;5034938;28;20025;-55
2022/09/22 00:16:47;;;;;;;20.77;13.27;;;;;;;;;;5034988;28;20037;-57
2022/09/22 00:19:45;;;;;;;22.40;13.93;;;;;;;;;;5033737;28;20426;-57
2022/09/22 00:22:11;;;;;;;21.05;14.40;;;;;;;;;;5001184;28;20029;-59
2022/09/22 00:24:37;;;;;;;21.90;14.02;;;;;;;;;;5034298;28;20044;-61
2022/09/22 00:27:03;;;;;;;20.17;14.13;;;;;;;;;;5034112;28;20068;-56
2022/09/22 00:29:29;;;;;;;21.63;15.35;;;;;;;;;;5033745;28;20503;-58
2022/09/22 00:31:55;;;;;;;21.42;13.77;;;;;;;;;;5034346;28;20079;-56
2022/09/22 00:34:23;;;;;;;22.27;14.18;;;;;;;;;;5032783;28;20021;-57
2022/09/22 00:36:49;;;;;;;22.38;14.52;;;;;;;;;;5034183;28;20031;-58
2022/09/22 00:39:16;;;;;;;21.75;14.02;;;;;;;;;;5033487;28;20033;-59
2022/09/22 00:41:43;;;;;;;21.15;14.45;;;;;;;;;;5034046;28;20109;-58
2022/09/22 00:44:28;;;;;;;24.27;14.23;;;;;;;;;;5032592;28;20140;-58
2022/09/22 00:47:13;;;;;;;23.40;14.55;;;;;;;;;;5034293;28;20025;-54
2022/09/22 00:49:41;;;;;;;20.48;14.35;;;;;;;;;;5034402;28;20032;-58
2022/09/22 00:52:08;;;;;;;19.52;13.60;;;;;;;;;;5034201;28;20489;-51
2022/09/22 00:54:34;;;;;;;20.38;14.30;;;;;;;;;;5034008;28;20085;-55
2022/09/22 00:57:05;;;;;;;19.90;13.35;;;;;;;;;;5034304;28;20444;-57
2022/09/22 00:59:31;;;;;;;19.15;13.80;;;;;;;;;;5032323;28;20036;-58
2022/09/22 01:01:57;;;;;;;20.33;14.30;;;;;;;;;;5033603;28;20076;-55
2022/09/22 01:04:23;;;;;;;22.73;14.05;;;;;;;;;;5033516;28;20049;-58
2022/09/22 01:06:50;;;;;;;21.23;14.93;;;;;;;;;;5033410;28;20500;-58
2022/09/22 01:09:16;;;;;;;21.80;14.90;;;;;;;;;;5031622;28;20025;-58
2022/09/22 01:11:42;;;;;;;21.85;14.30;;;;;;;;;;5033318;28;20033;-59
2022/09/22 01:14:14;;;;;;;20.98;14.32;;;;;;;;;;5033241;28;20021;-57
2022/09/22 01:17:06;;;;;;;22.70;14.23;;;;;;;;;;5034339;28;20404;-57
2022/09/22 01:19:35;;;;;;;22.75;14.45;;;;;;;;;;5016916;28;20034;-57
2022/09/22 01:22:20;;;;;;;19.95;14.32;;;;;;;;;;5036090;28;20048;-57
2022/09/22 01:24:52;;;;;;;22.02;14.52;;;;;;;;;;5035814;28;20486;-58
2022/09/22 01:27:33;;;;;;;21.40;14.55;;;;;;;;;;5035078;28;20160;-59
2022/09/22 01:30:11;;;;;;;21.52;13.98;;;;;;;;;;5034440;28;20394;-57
2022/09/22 01:32:58;;;;;;;20.50;14.70;;;;;;;;;;5034105;28;20393;-57
2022/09/22 01:35:43;;;;;;;22.10;14.00;;;;;;;;;;5032926;28;20780;-59
2022/09/22 01:38:15;;;;;;;22.20;14.40;;;;;;;;;;5032229;28;20037;-57
2022/09/22 01:40:58;;;;;;;20.20;14.18;;;;;;;;;;5032921;28;20049;-58
2022/09/22 01:43:34;;;;;;;21.13;14.35;;;;;;;;;;5032960;28;20033;-57
2022/09/22 01:46:02;;;;;;;21.65;14.25;;;;;;;;;;5032843;28;20087;-59
2022/09/22 01:48:32;;;;;;;20.87;14.60;;;;;;;;;;5030762;28;20017;-60
2022/09/22 01:51:05;;;;;;;20.38;14.30;;;;;;;;;;5032755;28;20036;-58
2022/09/22 01:53:34;;;;;;;20.95;13.93;;;;;;;;;;5032568;28;20053;-55
2022/09/22 01:56:04;;;;;;;22.05;14.68;;;;;;;;;;5032604;28;20072;-57
2022/09/22 01:58:52;;;;;;;20.58;14.07;;;;;;;;;;5032070;28;20045;-58
2022/09/22 02:01:19;;;;;;;21.77;14.17;;;;;;;;;;5032640;28;20029;-55
2022/09/22 02:03:48;;;;;;;23.05;14.30;;;;;;;;;;5032476;28;20378;-58
2022/09/22 02:06:31;;;;;;;22.02;13.98;;;;;;;;;;5031406;28;20514;-56
2022/09/22 02:09:03;;;;;;;20.70;15.00;;;;;;;;;;5031794;28;20040;-55
2022/09/22 02:11:30;;;;;;;21.20;14.85;;;;;;;;;;5032522;28;20047;-59
2022/09/22 02:13:56;;;;;;;21.52;15.27;;;;;;;;;;5032375;28;20030;-57
2022/09/22 02:16:23;;;;;;;22.00;14.85;;;;;;;;;;5031076;28;20025;-56
2022/09/22 02:19:10;;;;;;;20.73;15.43;;;;;;;;;;5031562;28;20032;-60
2022/09/22 02:21:36;;;;;;;22.75;14.98;;;;;;;;;;5032293;28;20075;-58
2022/09/22 02:24:02;;;;;;;21.90;15.15;;;;;;;;;;5032246;28;20060;-56
2022/09/22 02:26:30;;;;;;;23.75;15.82;;;;;;;;;;5031040;28;20393;-57
2022/09/22 02:28:58;;;;;;;;;;;;;;;;;;5030716;28;20500;-57
2022/09/22 02:31:27;;;;;;;24.30;15.52;;;;;;;;;;5031141;28;19912;-55
2022/09/22 02:33:53;;;;;;;22.50;16.00;;;;;;;;;;5034289;28;20075;-55
2022/09/22 02:36:19;;;;;;;23.15;15.13;;;;;;;;;;5034501;28;20117;-56
2022/09/22 02:38:52;;;;;;;20.38;14.95;;;;;;;;;;5032686;28;20053;-54
2022/09/22 02:41:23;;;;;;;24.02;16.60;;;;;;;;;;5035567;28;20026;-59
2022/09/22 02:44:19;;;;;;;22.08;15.80;;;;;;;;;;5034153;28;20393;-56
2022/09/22 02:46:57;;;;;;;21.95;16.08;;;;;;;;;;5015238;28;20043;-58
2022/09/22 02:49:24;;;;;;;23.33;16.45;;;;;;;;;;5030155;28;20026;-58
2022/09/22 02:51:51;;;;;;;23.38;16.90;;;;;;;;;;5031805;28;20037;-57
2022/09/22 02:54:17;;;;;;;22.90;16.70;;;;;;;;;;5031942;28;20408;-55
2022/09/22 02:56:44;;;;;;;26.10;17.05;;;;;;;;;;5031866;28;20088;-57
2022/09/22 02:59:10;;;;;;;23.98;17.25;;;;;;;;;;5031381;28;20105;-57
2022/09/22 03:01:36;;;;;;;24.60;17.83;;;;;;;;;;5031929;28;20029;-58
2022/09/22 03:04:03;;;;;;;23.33;16.90;;;;;;;;;;5032034;28;20028;-55
2022/09/22 03:06:29;;;;;;;24.58;16.38;;;;;;;;;;5032084;28;20037;-58
2022/09/22 03:08:55;;;;;;;21.73;17.27;;;;;;;;;;5031151;28;20037;-60
2022/09/22 03:11:22;;;;;;;22.05;17.60;;;;;;;;;;5031965;28;20389;-56
2022/09/22 03:13:48;;;;;;;23.58;18.30;;;;;;;;;;5032076;28;20025;-57
2022/09/22 03:16:14;;;;;;;24.95;17.70;;;;;;;;;;5030440;28;20037;-59
2022/09/22 03:18:40;;;;;;;25.83;18.50;;;;;;;;;;5031006;28;20109;-57
2022/09/22 03:21:06;;;;;;;25.13;16.90;;;;;;;;;;5031830;28;20068;-61
2022/09/22 03:23:32;;;;;;;23.65;17.63;;;;;;;;;;5030444;28;20022;-54
2022/09/22 03:25:58;;;;;;;23.20;17.70;;;;;;;;;;5030563;28;20029;-59
2022/09/22 03:28:24;;;;;;;24.30;17.80;;;;;;;;;;5030991;28;20028;-59
2022/09/22 03:30:50;;;;;;;24.42;17.52;;;;;;;;;;5031755;28;20060;-58
2022/09/22 03:33:16;;;;;;;25.27;17.20;;;;;;;;;;5030285;28;20053;-59
2022/09/22 03:35:42;;;;;;;22.83;17.42;;;;;;;;;;5031372;28;20486;-55
2022/09/22 03:38:08;;;;;;;27.42;17.58;;;;;;;;;;5029422;28;20021;-59
2022/09/22 03:40:34;;;;;;;23.48;18.08;;;;;;;;;;5030322;28;20060;-55
2022/09/22 03:43:00;;;;;;;24.42;17.20;;;;;;;;;;5030225;28;20029;-57
2022/09/22 03:45:26;;;;;;;24.45;17.05;;;;;;;;;;5035023;28;20024;-58
2022/09/22 03:47:53;;;;;;;22.02;16.48;;;;;;;;;;5034206;28;20026;-57
2022/09/22 03:50:19;;;;;;;26.63;18.30;;;;;;;;;;5035081;28;20482;-57
2022/09/22 03:52:45;;;;;;;24.30;17.80;;;;;;;;;;5035001;28;20033;-58
2022/09/22 03:55:11;;;;;;;24.42;18.92;;;;;;;;;;5034712;28;20544;-56
2022/09/22 03:57:38;;;;;;;26.63;18.00;;;;;;;;;;5033995;28;20037;-58
2022/09/22 04:00:05;;;;;;;25.15;18.70;;;;;;;;;;5034532;28;20567;-58
2022/09/22 04:02:31;;;;;;;24.98;18.20;;;;;;;;;;5034855;28;20076;-58
2022/09/22 04:04:57;;;;;;;25.27;18.73;;;;;;;;;;5034612;28;20025;-58
2022/09/22 04:07:22;;;;;;;23.55;18.15;;;;;;;;;;5033964;28;20548;-58
2022/09/22 04:09:48;;;;;;;25.10;19.08;;;;;;;;;;5034794;28;20068;-58
2022/09/22 04:12:15;;;;;;;25.08;19.10;;;;;;;;;;5035047;28;20029;-58
2022/09/22 04:14:41;;;;;;;25.35;19.55;;;;;;;;;;5033537;28;20034;-58
2022/09/22 04:17:06;;;;;;;26.73;20.42;;;;;;;;;;5034441;28;20250;-59
2022/09/22 04:19:34;;;;;;;29.90;20.35;;;;;;;;;;5034077;28;20022;-58
2022/09/22 04:22:00;;;;;;;25.77;20.92;;;;;;;;;;5034688;28;20037;-56
2022/09/22 04:24:26;;;;;;;29.60;20.98;;;;;;;;;;5034432;28;20029;-56
2022/09/22 04:26:52;;;;;;;27.05;20.73;;;;;;;;;;5034633;28;20474;-54
2022/09/22 04:29:18;;;;;;;28.10;20.00;;;;;;;;;;5033905;28;20101;-56
2022/09/22 04:31:44;;;;;;;26.35;20.98;;;;;;;;;;5034633;28;20025;-59
2022/09/22 04:34:10;;;;;;;26.40;20.17;;;;;;;;;;5034285;28;20045;-56
2022/09/22 04:36:36;;;;;;;25.15;19.73;;;;;;;;;;5033750;28;20144;-55
2022/09/22 04:39:03;;;;;;;25.08;20.13;;;;;;;;;;5033426;28;20025;-59
2022/09/22 04:41:29;;;;;;;29.55;21.58;;;;;;;;;;5033818;28;20049;-59
2022/09/22 04:43:55;;;;;;;28.92;21.42;;;;;;;;;;5033793;28;20104;-57
2022/09/22 04:46:21;;;;;;;27.38;20.80;;;;;;;;;;5032810;28;20053;-56
2022/09/22 04:48:47;;;;;;;25.00;20.33;;;;;;;;;;5033564;28;20490;-58
2022/09/22 04:51:13;;;;;;;26.60;20.65;;;;;;;;;;5032856;28;20025;-55
2022/09/22 04:53:39;;;;;;;27.00;19.85;;;;;;;;;;5033759;28;20059;-56
2022/09/22 04:56:05;;;;;;;28.27;19.70;;;;;;;;;;5032806;28;20116;-58
2022/09/22 04:58:31;;;;;;;27.25;19.98;;;;;;;;;;5033234;28;20021;-54
2022/09/22 05:01:04;;;;;;;23.88;18.77;;;;;;;;;;5034790;28;20443;-58
2022/09/22 05:03:30;;;;;;;30.48;21.00;;;;;;;;;;5033463;28;20022;-57
2022/09/22 05:05:56;;;;;;;25.20;20.67;;;;;;;;;;5033173;28;20018;-56
2022/09/22 05:08:22;;;;;;;25.95;19.75;;;;;;;;;;5032605;28;20033;-60
2022/09/22 05:10:48;;;;;;;24.17;19.60;;;;;;;;;;5033375;28;20041;-55
2022/09/22 05:13:14;;;;;;;24.40;19.13;;;;;;;;;;5033540;28;20468;-53
2022/09/22 05:15:40;;;;;;;24.85;19.67;;;;;;;;;;5032269;28;20477;-59
2022/09/22 05:18:06;;;;;;;24.88;18.92;;;;;;;;;;5032299;28;20034;-56
2022/09/22 05:20:32;;;;;;;24.25;19.80;;;;;;;;;;5033011;28;20048;-58
2022/09/22 05:22:58;;;;;;;25.08;19.05;;;;;;;;;;5032768;28;20479;-58
2022/09/22 05:25:24;;;;;;;25.42;19.17;;;;;;;;;;5033109;28;20017;-59
2022/09/22 05:27:51;;;;;;;27.80;19.27;;;;;;;;;;5032218;28;20030;-58
2022/09/22 05:30:19;;;;;;;27.25;18.88;;;;;;;;;;5032886;28;20025;-58
2022/09/22 05:32:46;;;;;;;26.83;19.90;;;;;;;;;;5033117;28;20033;-56
2022/09/22 05:35:12;;;;;;;23.80;18.75;;;;;;;;;;5032779;28;20022;-62
2022/09/22 05:37:38;;;;;;;27.00;20.73;;;;;;;;;;5032166;28;20029;-59
2022/09/22 05:40:05;;;;;;;26.10;21.02;;;;;;;;;;5031662;28;20393;-57
